createdAt,value
2018-11-02T00:01:27.776Z,11.50
2018-11-02T00:03:56.222Z,9.50
2018-11-02T00:06:24.335Z,9.68
2018-11-02T00:08:52.199Z,8.43
2018-11-02T00:11:20.594Z,9.15
2018-11-02T00:13:49.597Z,8.78
2018-11-02T00:16:17.583Z,9.25
2018-11-02T00:18:45.571Z,9.67
2018-11-02T00:21:13.554Z,8.90
2018-11-02T00:23:41.542Z,9.10
2018-11-02T00:26:09.527Z,7.93
2018-11-02T00:28:37.514Z,7.92
2018-11-02T00:31:05.508Z,8.33
2018-11-02T00:33:33.510Z,9.53
2018-11-02T00:36:01.486Z,10.28
2018-11-02T00:38:29.481Z,8.83
2018-11-02T00:40:57.460Z,8.53
2018-11-02T00:43:25.438Z,9.23
2018-11-02T00:45:53.413Z,9.03
2018-11-02T00:48:21.398Z,9.75
2018-11-02T00:50:49.373Z,8.50
2018-11-02T00:53:17.361Z,9.20
2018-11-02T00:55:45.394Z,9.78
2018-11-02T00:58:13.383Z,9.33
2018-11-02T01:00:41.355Z,9.35
2018-11-02T01:03:09.347Z,9.08
2018-11-02T01:05:37.327Z,7.90
2018-11-02T01:08:05.333Z,8.53
2018-11-02T01:10:33.344Z,8.18
2018-11-02T01:13:01.306Z,8.50
2018-11-02T01:15:29.286Z,8.25
2018-11-02T01:17:57.262Z,9.10
2018-11-02T01:20:25.246Z,8.85
2018-11-02T01:22:53.227Z,8.68
2018-11-02T01:25:21.210Z,10.03
2018-11-02T01:27:49.219Z,11.28
2018-11-02T01:30:17.217Z,11.88
2018-11-02T01:32:45.199Z,10.15
2018-11-02T01:35:13.193Z,10.63
2018-11-02T01:37:41.174Z,7.60
2018-11-02T01:40:09.165Z,9.20
2018-11-02T01:42:37.154Z,9.15
2018-11-02T01:45:05.138Z,10.23
2018-11-02T01:47:33.119Z,9.38
2018-11-02T01:50:01.118Z,9.25
2018-11-02T01:52:29.102Z,9.95
2018-11-02T01:54:57.086Z,9.50
2018-11-02T01:57:25.077Z,9.13
2018-11-02T01:59:53.074Z,7.78
2018-11-02T02:02:21.062Z,8.75
2018-11-02T02:04:49.059Z,9.10
2018-11-02T02:07:17.043Z,8.63
2018-11-02T02:09:45.041Z,8.53
2018-11-02T02:12:13.025Z,8.73
2018-11-02T02:14:41.096Z,8.53
2018-11-02T02:17:09.005Z,8.40
2018-11-02T02:19:37.012Z,8.50
2018-11-02T02:22:05.209Z,8.33
2018-11-02T02:24:33.186Z,7.75
2018-11-02T02:27:01.204Z,8.10
2018-11-02T02:29:29.170Z,8.00
2018-11-02T02:31:57.197Z,8.28
2018-11-02T02:34:25.178Z,8.90
2018-11-02T02:36:53.170Z,8.55
2018-11-02T02:39:21.323Z,8.05
2018-11-02T02:41:49.318Z,8.63
2018-11-02T02:44:17.305Z,8.38
2018-11-02T02:46:45.298Z,8.13
2018-11-02T02:49:13.287Z,8.20
2018-11-02T02:51:41.277Z,8.43
2018-11-02T02:54:09.253Z,9.08
2018-11-02T02:56:37.257Z,8.50
2018-11-02T02:59:05.259Z,8.80
2018-11-02T03:01:33.250Z,9.15
2018-11-02T03:04:01.231Z,8.03
2018-11-02T03:06:29.248Z,8.40
2018-11-02T03:08:57.232Z,7.67
2018-11-02T03:11:25.166Z,8.33
2018-11-02T03:13:53.143Z,8.03
2018-11-02T03:16:21.127Z,7.30
2018-11-02T03:18:49.148Z,7.67
2018-11-02T03:21:17.125Z,7.15
2018-11-02T03:23:45.090Z,8.15
2018-11-02T03:26:13.070Z,8.37
2018-11-02T03:28:41.046Z,8.28
2018-11-02T03:31:09.141Z,9.13
2018-11-02T03:33:37.125Z,6.75
2018-11-02T03:36:05.121Z,7.40
2018-11-02T03:38:33.097Z,8.75
2018-11-02T03:41:01.128Z,7.83
2018-11-02T03:43:29.122Z,7.55
2018-11-02T03:45:57.093Z,7.30
2018-11-02T03:48:25.090Z,7.30
2018-11-02T03:50:53.307Z,7.70
2018-11-02T03:53:21.277Z,7.17
2018-11-02T03:55:49.874Z,8.03
2018-11-02T03:58:17.846Z,7.30
2018-11-02T04:00:46.542Z,8.50
2018-11-02T04:03:14.509Z,7.65
2018-11-02T04:05:42.514Z,8.55
2018-11-02T04:08:10.477Z,8.17
2018-11-02T04:10:38.485Z,7.00
2018-11-02T04:13:06.543Z,7.35
2018-11-02T04:15:34.514Z,6.90
2018-11-02T04:18:02.499Z,6.93
2018-11-02T04:20:30.473Z,7.70
2018-11-02T04:22:58.538Z,7.28
2018-11-02T04:25:26.513Z,8.43
2018-11-02T04:27:54.504Z,8.55
2018-11-02T04:30:22.478Z,7.83
2018-11-02T04:32:50.469Z,7.75
2018-11-02T04:35:18.442Z,7.05
2018-11-02T04:37:46.426Z,7.37
2018-11-02T04:40:14.393Z,6.47
2018-11-02T04:42:42.377Z,6.80
2018-11-02T04:45:10.355Z,6.80
2018-11-02T04:47:38.345Z,7.27
2018-11-02T04:50:06.748Z,8.13
2018-11-02T04:52:34.771Z,8.65
2018-11-02T04:55:02.757Z,8.13
2018-11-02T04:57:30.729Z,7.20
2018-11-02T04:59:58.700Z,8.57
2018-11-02T05:02:26.720Z,7.03
2018-11-02T05:04:54.693Z,7.58
2018-11-02T05:07:22.680Z,8.18
2018-11-02T05:09:50.684Z,6.90
2018-11-02T05:12:18.674Z,7.73
2018-11-02T05:14:46.644Z,8.35
2018-11-02T05:17:14.632Z,8.60
2018-11-02T05:19:42.609Z,9.37
2018-11-02T05:22:11.745Z,8.73
2018-11-02T05:24:39.850Z,8.37
2018-11-02T05:27:07.831Z,7.27
2018-11-02T05:29:35.800Z,8.17
2018-11-02T05:32:03.784Z,7.67
2018-11-02T05:34:31.792Z,8.40
2018-11-02T05:36:59.824Z,7.60
2018-11-02T05:39:27.843Z,6.80
2018-11-02T05:41:55.778Z,7.10
2018-11-02T05:44:23.808Z,6.53
2018-11-02T05:46:51.815Z,6.83
2018-11-02T05:49:20.021Z,8.13
2018-11-02T05:51:47.977Z,7.12
2018-11-02T05:54:16.023Z,6.23
2018-11-02T05:56:44.000Z,6.30
2018-11-02T05:59:11.982Z,7.40
2018-11-02T06:01:40.010Z,5.43
2018-11-02T06:04:08.013Z,6.90
2018-11-02T06:06:36.020Z,7.30
2018-11-02T06:09:05.085Z,7.12
2018-11-02T06:11:33.045Z,6.07
2018-11-02T06:14:01.021Z,6.33
2018-11-02T06:16:29.001Z,6.67
2018-11-02T06:18:56.954Z,6.67
2018-11-02T06:21:24.927Z,6.28
2018-11-02T06:23:52.956Z,7.55
2018-11-02T06:26:20.955Z,6.73
2018-11-02T06:28:48.925Z,7.40
2018-11-02T06:31:16.926Z,7.33
2018-11-02T06:33:45.365Z,6.47
2018-11-02T06:36:13.337Z,5.50
2018-11-02T06:38:41.346Z,7.27
2018-11-02T06:41:09.295Z,7.10
2018-11-02T06:43:37.269Z,8.60
2018-11-02T06:46:05.246Z,8.70
2018-11-02T06:48:33.280Z,10.27
2018-11-02T06:51:01.289Z,10.77
2018-11-02T06:53:29.241Z,13.93
2018-11-02T06:55:57.220Z,14.43
2018-11-02T06:58:25.260Z,16.90
2018-11-02T07:00:53.301Z,18.00
2018-11-02T07:03:21.390Z,14.23
2018-11-02T07:05:49.417Z,13.53
2018-11-02T07:08:17.459Z,11.37
2018-11-02T07:10:45.377Z,9.63
2018-11-02T07:13:13.368Z,8.67
2018-11-02T07:15:41.388Z,7.13
2018-11-02T07:18:09.373Z,7.80
2018-11-02T07:20:37.373Z,7.37
2018-11-02T07:23:05.785Z,6.67
2018-11-02T07:25:33.772Z,6.97
2018-11-02T07:28:01.780Z,6.73
2018-11-02T07:30:29.810Z,7.60
2018-11-02T07:32:57.778Z,7.23
2018-11-02T07:35:25.757Z,6.70
2018-11-02T07:37:53.757Z,6.50
2018-11-02T07:40:21.741Z,6.73
2018-11-02T07:42:49.710Z,7.30
2018-11-02T07:45:17.731Z,8.60
2018-11-02T07:47:45.737Z,9.20
2018-11-02T07:50:13.958Z,7.60
2018-11-02T07:52:42.161Z,7.83
2018-11-02T07:55:11.533Z,6.63
2018-11-02T07:57:39.851Z,6.80
2018-11-02T08:00:10.450Z,6.43
2018-11-02T08:02:38.863Z,6.37
2018-11-02T08:05:06.854Z,6.73
2018-11-02T08:07:35.056Z,7.10
2018-11-02T08:10:03.030Z,7.20
2018-11-02T08:12:31.048Z,6.30
2018-11-02T08:14:59.034Z,7.97
2018-11-02T08:17:27.139Z,7.93
2018-11-02T08:19:55.099Z,7.90
2018-11-02T08:22:23.112Z,8.00
2018-11-02T08:24:51.154Z,8.03
2018-11-02T08:27:19.145Z,7.27
2018-11-02T08:30:02.754Z,6.57
2018-11-02T08:32:30.751Z,6.30
2018-11-02T08:34:58.754Z,5.90
2018-11-02T08:37:26.747Z,4.90
2018-11-02T08:39:54.968Z,6.20
2018-11-02T08:42:22.970Z,4.97
2018-11-02T08:44:51.058Z,4.90
2018-11-02T08:47:19.157Z,4.63
2018-11-02T08:49:47.149Z,5.17
2018-11-02T08:52:15.223Z,5.80
2018-11-02T08:54:43.336Z,5.73
2018-11-02T08:57:11.357Z,5.40
2018-11-02T08:59:39.372Z,6.00
2018-11-02T09:02:07.385Z,5.33
2018-11-02T09:04:35.363Z,4.43
2018-11-02T09:07:03.414Z,4.77
2018-11-02T09:09:31.381Z,4.40
2018-11-02T09:11:59.453Z,4.53
2018-11-02T09:14:27.405Z,6.60
2018-11-02T09:16:55.407Z,4.80
2018-11-02T09:19:23.464Z,5.53
2018-11-02T09:21:51.493Z,5.43
2018-11-02T09:24:19.406Z,5.63
2018-11-02T09:26:47.406Z,5.27
2018-11-02T09:29:15.477Z,5.60
2018-11-02T09:31:43.482Z,6.60
2018-11-02T09:34:11.505Z,6.20
2018-11-02T09:36:39.535Z,7.03
2018-11-02T09:39:08.703Z,6.17
2018-11-02T09:41:36.738Z,5.00
2018-11-02T09:44:05.082Z,4.60
2018-11-02T09:46:33.138Z,5.50
2018-11-02T09:49:01.214Z,5.27
2018-11-02T09:51:29.308Z,6.00
2018-11-02T09:53:57.373Z,5.70
2018-11-02T09:56:25.370Z,5.57
2018-11-02T09:58:53.356Z,5.30
2018-11-02T10:01:21.426Z,6.27
2018-11-02T10:03:49.491Z,5.90
2018-11-02T10:06:17.596Z,6.97
2018-11-02T10:08:45.583Z,6.97
2018-11-02T10:11:13.717Z,7.37
2018-11-02T10:13:41.840Z,6.43
2018-11-02T10:16:10.014Z,8.37
2018-11-02T10:18:38.545Z,7.70
2018-11-02T10:21:06.621Z,8.20
2018-11-02T10:27:05.936Z,6.80
2018-11-02T10:29:33.969Z,7.40
2018-11-02T10:32:02.007Z,7.53
2018-11-02T10:34:30.235Z,7.63
2018-11-02T10:36:58.317Z,9.17
2018-11-02T10:39:26.414Z,9.10
2018-11-02T10:41:55.118Z,8.30
2018-11-02T10:44:24.278Z,7.73
2018-11-02T10:46:52.217Z,8.67
2018-11-02T10:49:20.332Z,9.83
2018-11-02T10:51:48.283Z,8.57
2018-11-02T10:54:16.329Z,8.60
2018-11-02T10:56:44.399Z,9.10
2018-11-02T10:59:12.474Z,9.60
2018-11-02T11:01:45.943Z,10.67
2018-11-02T11:04:13.943Z,9.57
2018-11-02T11:06:41.919Z,9.97
2018-11-02T11:09:11.038Z,7.93
2018-11-02T11:11:39.507Z,9.10
2018-11-02T11:14:07.538Z,9.90
2018-11-02T11:16:35.533Z,9.97
2018-11-02T11:19:03.680Z,8.93
2018-11-02T11:21:31.848Z,9.90
2018-11-02T11:23:59.847Z,9.67
2018-11-02T11:26:27.836Z,9.97
2018-11-02T11:28:55.826Z,9.40
2018-11-02T11:31:23.880Z,10.20
2018-11-02T11:33:51.959Z,10.60
2018-11-02T11:36:19.970Z,10.83
2018-11-02T11:38:47.975Z,9.37
2018-11-02T11:41:16.071Z,10.87
2018-11-02T11:43:44.169Z,10.70
2018-11-02T11:46:12.167Z,11.00
2018-11-02T11:48:40.247Z,10.10
2018-11-02T11:51:08.253Z,9.40
2018-11-02T11:53:36.282Z,10.53
2018-11-02T11:56:04.489Z,11.20
2018-11-02T11:58:32.516Z,10.87
2018-11-02T12:01:00.568Z,10.27
2018-11-02T12:03:28.653Z,9.53
2018-11-02T12:05:56.737Z,11.47
2018-11-02T12:08:24.800Z,10.20
2018-11-02T12:10:52.834Z,10.07
2018-11-02T12:13:20.923Z,10.20
2018-11-02T12:15:48.988Z,10.60
2018-11-02T12:18:17.006Z,9.70
2018-11-02T12:20:45.046Z,10.20
2018-11-02T12:23:13.039Z,10.90
2018-11-02T12:25:41.035Z,10.40
2018-11-02T12:28:09.091Z,10.67
2018-11-02T12:30:37.129Z,10.20
2018-11-02T12:33:15.388Z,8.30
2018-11-02T12:35:44.917Z,7.97
2018-11-02T12:38:13.273Z,8.30
2018-11-02T12:40:41.834Z,8.20
2018-11-02T12:43:10.862Z,8.67
2018-11-02T12:45:40.050Z,8.07
2018-11-02T12:48:12.022Z,7.63
2018-11-02T12:50:40.741Z,7.00
2018-11-02T12:53:10.364Z,8.03
2018-11-02T12:55:40.779Z,8.43
2018-11-02T12:58:09.009Z,8.80
2018-11-02T13:00:37.027Z,8.07
2018-11-02T13:03:05.048Z,9.17
2018-11-02T13:05:33.051Z,8.30
2018-11-02T13:08:01.067Z,8.23
2018-11-02T13:10:29.102Z,10.00
2018-11-02T13:12:57.101Z,9.17
2018-11-02T13:15:25.506Z,8.90
2018-11-02T13:17:53.631Z,8.77
2018-11-02T13:20:21.836Z,9.67
2018-11-02T13:22:50.536Z,8.93
2018-11-02T13:25:19.613Z,8.13
2018-11-02T13:27:48.400Z,9.57
2018-11-02T13:30:16.610Z,8.73
2018-11-02T13:32:44.534Z,8.20
2018-11-02T13:35:14.167Z,8.43
2018-11-02T13:37:42.870Z,8.80
2018-11-02T13:40:12.101Z,7.60
2018-11-02T13:42:40.510Z,7.87
2018-11-02T13:45:09.778Z,8.13
2018-11-02T13:47:37.907Z,8.30
2018-11-02T13:50:06.125Z,7.90
2018-11-02T13:52:34.106Z,8.10
2018-11-02T13:55:02.274Z,7.83
2018-11-02T13:57:30.279Z,7.50
2018-11-02T13:59:58.327Z,7.83
2018-11-02T14:02:26.334Z,7.67
2018-11-02T14:04:54.321Z,7.40
2018-11-02T14:07:22.330Z,7.33
2018-11-02T14:09:50.428Z,7.80
2018-11-02T14:12:18.417Z,6.97
2018-11-02T14:14:46.425Z,6.07
2018-11-02T14:17:14.428Z,7.40
2018-11-02T14:19:42.419Z,7.43
2018-11-02T14:22:10.410Z,6.60
2018-11-02T14:24:38.433Z,7.50
2018-11-02T14:27:06.430Z,7.10
2018-11-02T14:29:34.757Z,7.83
2018-11-02T14:32:02.694Z,6.10
2018-11-02T14:34:30.686Z,7.23
2018-11-02T14:36:58.674Z,6.33
2018-11-02T14:39:26.658Z,6.10
2018-11-02T14:41:54.708Z,6.50
2018-11-02T14:44:22.746Z,6.30
2018-11-02T14:46:50.746Z,6.20
2018-11-02T14:49:18.726Z,6.17
2018-11-02T14:51:46.729Z,5.20
2018-11-02T14:54:14.718Z,6.10
2018-11-02T14:56:42.712Z,5.53
2018-11-02T14:59:10.709Z,5.70
2018-11-02T15:01:38.732Z,6.90
2018-11-02T15:04:06.781Z,5.53
2018-11-02T15:06:34.763Z,5.53
2018-11-02T15:09:02.778Z,6.13
2018-11-02T15:11:30.927Z,5.90
2018-11-02T15:13:58.903Z,5.50
2018-11-02T15:16:27.112Z,5.03
2018-11-02T15:18:55.113Z,6.13
2018-11-02T15:21:23.265Z,6.00
2018-11-02T15:23:51.289Z,5.87
2018-11-02T15:26:19.310Z,6.53
2018-11-02T15:28:47.270Z,6.47
2018-11-02T15:31:15.287Z,7.10
2018-11-02T15:33:43.291Z,7.60
2018-11-02T15:36:11.285Z,6.20
2018-11-02T15:38:39.266Z,7.87
2018-11-02T15:41:07.289Z,6.90
2018-11-02T15:43:35.300Z,8.40
2018-11-02T15:46:03.294Z,7.33
2018-11-02T15:48:31.283Z,7.40
2018-11-02T15:50:59.318Z,7.30
2018-11-02T15:53:27.490Z,7.87
2018-11-02T15:55:55.547Z,6.73
2018-11-02T15:58:23.586Z,7.90
2018-11-02T16:00:51.636Z,8.30
2018-11-02T16:03:19.877Z,7.80
2018-11-02T16:05:47.871Z,7.40
2018-11-02T16:08:15.880Z,7.07
2018-11-02T16:10:43.867Z,8.40
2018-11-02T16:13:11.874Z,9.03
2018-11-02T16:15:39.957Z,9.77
2018-11-02T16:18:07.966Z,11.17
2018-11-02T16:20:36.014Z,12.40
2018-11-02T16:23:04.136Z,13.23
2018-11-02T16:25:32.136Z,13.50
2018-11-02T16:28:00.188Z,12.47
2018-11-02T16:30:28.175Z,13.37
2018-11-02T16:32:56.175Z,11.90
2018-11-02T16:35:24.201Z,12.37
2018-11-02T16:37:52.215Z,12.60
2018-11-02T16:40:20.286Z,11.20
2018-11-02T16:42:48.371Z,12.80
2018-11-02T16:45:16.392Z,11.40
2018-11-02T16:47:44.702Z,13.30
2018-11-02T16:50:13.893Z,12.77
2018-11-02T16:52:42.524Z,13.63
2018-11-02T16:55:10.677Z,13.30
2018-11-02T16:57:38.997Z,14.40
2018-11-02T17:00:15.195Z,13.63
2018-11-02T17:02:44.002Z,15.23
2018-11-02T17:05:11.979Z,15.70
2018-11-02T17:07:40.576Z,14.67
2018-11-02T17:10:09.641Z,13.17
2018-11-02T17:12:37.908Z,13.87
2018-11-02T17:15:06.029Z,13.77
2018-11-02T17:17:34.162Z,13.50
2018-11-02T17:20:02.362Z,14.27
2018-11-02T17:22:30.680Z,14.80
2018-11-02T17:24:58.686Z,15.97
2018-11-02T17:27:26.723Z,15.70
2018-11-02T17:29:54.778Z,14.30
2018-11-02T17:32:22.960Z,15.47
2018-11-02T17:34:51.254Z,16.53
2018-11-02T17:37:19.882Z,14.00
2018-11-02T17:39:48.259Z,15.50
2018-11-02T17:42:16.649Z,16.83
2018-11-02T17:44:44.985Z,16.20
2018-11-02T17:47:12.982Z,16.57
2018-11-02T17:49:41.118Z,17.50
2018-11-02T17:52:09.304Z,15.77
2018-11-02T17:54:37.745Z,15.60
2018-11-02T17:57:06.267Z,17.13
2018-11-02T17:59:34.751Z,17.00
2018-11-02T18:02:02.955Z,16.80
2018-11-02T18:04:31.403Z,17.57
2018-11-02T18:07:00.065Z,17.13
2018-11-02T18:09:28.236Z,16.37
2018-11-02T18:11:56.826Z,16.03
2018-11-02T18:14:25.084Z,16.93
2018-11-02T18:16:53.239Z,15.67
2018-11-02T18:19:22.889Z,15.57
2018-11-02T18:21:51.090Z,15.77
2018-11-02T18:24:19.340Z,14.27
2018-11-02T18:26:47.999Z,15.23
2018-11-02T18:29:16.317Z,15.67
2018-11-02T18:31:44.603Z,17.90
2018-11-02T18:34:13.135Z,18.50
2018-11-02T18:36:41.410Z,18.13
2018-11-02T18:39:11.129Z,17.27
2018-11-02T18:41:39.315Z,17.43
2018-11-02T18:44:07.599Z,17.10
2018-11-02T18:46:36.782Z,14.93
2018-11-02T18:49:04.903Z,17.57
2018-11-02T18:51:32.999Z,17.27
2018-11-02T18:54:01.472Z,21.60
2018-11-02T18:56:29.563Z,22.87
2018-11-02T18:58:58.065Z,23.33
2018-11-02T19:01:26.436Z,27.70
2018-11-02T19:03:54.671Z,29.47
2018-11-02T19:06:22.904Z,30.10
2018-11-02T19:08:52.177Z,31.30
2018-11-02T19:11:21.942Z,34.27
2018-11-02T19:13:49.988Z,30.60
2018-11-02T19:16:18.697Z,29.07
2018-11-02T19:18:47.043Z,28.17
2018-11-02T19:21:15.232Z,29.73
2018-11-02T19:23:43.329Z,29.00
2018-11-02T19:26:11.356Z,25.77
2018-11-02T19:28:39.407Z,26.87
2018-11-02T19:31:07.403Z,24.90
2018-11-02T19:33:35.771Z,23.87
2018-11-02T19:36:03.762Z,23.63
2018-11-02T19:38:31.845Z,25.57
2018-11-02T19:40:59.828Z,23.60
2018-11-02T19:43:27.897Z,24.23
2018-11-02T19:45:55.924Z,23.37
2018-11-02T19:48:24.327Z,22.70
2018-11-02T19:50:52.457Z,24.30
2018-11-02T19:53:20.463Z,26.37
2018-11-02T19:55:48.749Z,26.07
2018-11-02T19:58:16.505Z,25.37
2018-11-02T20:00:44.560Z,28.40
2018-11-02T20:03:12.617Z,27.97
2018-11-02T20:05:41.636Z,26.07
2018-11-02T20:08:09.683Z,26.90
2018-11-02T20:10:37.720Z,25.40
2018-11-02T20:13:05.718Z,24.17
2018-11-02T20:15:33.728Z,24.33
2018-11-02T20:18:01.743Z,24.33
2018-11-02T20:20:29.774Z,26.43
2018-11-02T20:22:57.816Z,24.73
2018-11-02T20:25:25.834Z,24.07
2018-11-02T20:27:53.818Z,22.80
2018-11-02T20:30:22.163Z,22.10
2018-11-02T20:32:50.195Z,23.17
2018-11-02T20:35:18.190Z,20.40
2018-11-02T20:37:46.196Z,22.57
2018-11-02T20:40:16.063Z,22.00
2018-11-02T20:42:44.734Z,22.67
2018-11-02T20:45:12.869Z,21.57
2018-11-02T20:47:46.510Z,25.00
2018-11-02T20:50:15.992Z,24.90
2018-11-02T20:52:47.532Z,25.60
2018-11-02T20:55:16.798Z,26.03
2018-11-02T20:57:46.787Z,24.70
2018-11-02T21:00:25.480Z,24.57
2018-11-02T21:02:53.689Z,25.33
2018-11-02T21:05:22.247Z,24.00
2018-11-02T21:07:50.788Z,24.80
2018-11-02T21:10:19.752Z,21.90
2018-11-02T21:12:47.880Z,22.67
2018-11-02T21:15:17.146Z,24.60
2018-11-02T21:17:45.137Z,23.00
2018-11-02T21:20:15.574Z,22.03
2018-11-02T21:22:43.718Z,22.60
2018-11-02T21:25:12.343Z,21.00
2018-11-02T21:27:41.022Z,22.20
2018-11-02T21:30:10.214Z,22.07
2018-11-02T21:32:38.235Z,22.30
2018-11-02T21:35:06.581Z,23.90
2018-11-02T21:37:34.628Z,23.07
2018-11-02T21:40:02.661Z,22.20
2018-11-02T21:42:30.675Z,22.23
2018-11-02T21:44:58.691Z,22.33
2018-11-02T21:47:26.716Z,20.93
2018-11-02T21:49:54.728Z,21.90
2018-11-02T21:52:22.713Z,20.70
2018-11-02T21:54:50.736Z,22.30
2018-11-02T21:57:18.713Z,20.03
2018-11-02T21:59:46.689Z,19.60
2018-11-02T22:02:14.716Z,20.63
2018-11-02T22:04:42.706Z,21.60
2018-11-02T22:07:10.693Z,23.10
2018-11-02T22:09:38.706Z,25.07
2018-11-02T22:12:06.694Z,25.20
2018-11-02T22:14:34.772Z,25.70
2018-11-02T22:17:02.752Z,28.53
2018-11-02T22:19:30.889Z,26.67
2018-11-02T22:21:58.807Z,25.10
2018-11-02T22:24:26.843Z,24.10
2018-11-02T22:26:54.844Z,22.37
2018-11-02T22:29:22.985Z,21.10
2018-11-02T22:31:50.969Z,22.50
2018-11-02T22:34:19.085Z,20.07
2018-11-02T22:36:47.108Z,20.90
2018-11-02T22:39:15.128Z,19.90
2018-11-02T22:41:43.109Z,22.50
2018-11-02T22:44:11.085Z,21.17
2018-11-02T22:46:39.102Z,20.83
2018-11-02T22:49:07.097Z,22.20
2018-11-02T22:51:35.086Z,21.60
2018-11-02T22:56:37.783Z,20.97
2018-11-02T22:59:05.765Z,20.20
2018-11-02T23:01:33.749Z,20.10
2018-11-02T23:04:01.885Z,17.67
2018-11-02T23:06:30.160Z,18.60
2018-11-02T23:08:58.146Z,18.63
2018-11-02T23:11:26.137Z,18.33
2018-11-02T23:13:54.262Z,17.37
2018-11-02T23:16:22.245Z,20.00
2018-11-02T23:18:50.409Z,19.30
2018-11-02T23:21:18.671Z,17.77
2018-11-02T23:23:46.703Z,17.87
2018-11-02T23:26:14.773Z,18.70
2018-11-02T23:28:42.757Z,18.47
2018-11-02T23:31:10.772Z,19.30
2018-11-02T23:33:38.805Z,19.27
2018-11-02T23:36:06.785Z,19.30
2018-11-02T23:38:34.793Z,17.97
2018-11-02T23:41:02.816Z,18.73
2018-11-02T23:43:30.810Z,18.37
2018-11-02T23:45:58.797Z,17.63
2018-11-02T23:48:26.777Z,14.90
2018-11-02T23:50:54.793Z,17.20
2018-11-02T23:53:22.793Z,16.47
2018-11-02T23:55:50.761Z,18.47
2018-11-02T23:58:18.886Z,18.00
